sensor_id;sensor_type;location;lat;lon;timestamp;P1;durP1;ratioP1;P2;durP2;ratioP2
20283;SDS011;10301;50.832;4.080;2023-03-04T00:00:25;23.73;;;11.50;;
20283;SDS011;10301;50.832;4.080;2023-03-04T00:02:51;22.30;;;10.87;;
20283;SDS011;10301;50.832;4.080;2023-03-04T00:05:17;22.40;;;11.23;;
20283;SDS011;10301;50.832;4.080;2023-03-04T00:07:42;21.23;;;11.10;;
20283;SDS011;10301;50.832;4.080;2023-03-04T00:10:08;22.87;;;12.70;;
20283;SDS011;10301;50.832;4.080;2023-03-04T00:12:35;23.70;;;12.80;;
20283;SDS011;10301;50.832;4.080;2023-03-04T00:15:00;24.03;;;11.77;;
20283;SDS011;10301;50.832;4.080;2023-03-04T00:17:26;26.67;;;12.30;;
20283;SDS011;10301;50.832;4.080;2023-03-04T00:19:54;21.70;;;11.80;;
20283;SDS011;10301;50.832;4.080;2023-03-04T00:22:20;27.30;;;12.80;;
20283;SDS011;10301;50.832;4.080;2023-03-04T00:24:45;22.33;;;12.50;;
20283;SDS011;10301;50.832;4.080;2023-03-04T00:27:11;25.77;;;12.73;;
20283;SDS011;10301;50.832;4.080;2023-03-04T00:29:37;22.13;;;11.47;;
20283;SDS011;10301;50.832;4.080;2023-03-04T00:32:03;26.13;;;12.70;;
20283;SDS011;10301;50.832;4.080;2023-03-04T00:34:28;21.10;;;10.90;;
20283;SDS011;10301;50.832;4.080;2023-03-04T00:36:54;28.60;;;13.27;;
20283;SDS011;10301;50.832;4.080;2023-03-04T00:39:25;23.20;;;11.80;;
20283;SDS011;10301;50.832;4.080;2023-03-04T00:41:52;18.27;;;11.17;;
20283;SDS011;10301;50.832;4.080;2023-03-04T00:44:17;19.00;;;11.20;;
20283;SDS011;10301;50.832;4.080;2023-03-04T00:46:43;23.70;;;10.87;;
20283;SDS011;10301;50.832;4.080;2023-03-04T00:49:09;26.70;;;12.13;;
20283;SDS011;10301;50.832;4.080;2023-03-04T00:51:34;25.53;;;11.40;;
20283;SDS011;10301;50.832;4.080;2023-03-04T00:54:00;24.40;;;11.80;;
20283;SDS011;10301;50.832;4.080;2023-03-04T00:56:26;23.63;;;11.13;;
20283;SDS011;10301;50.832;4.080;2023-03-04T00:58:51;19.37;;;10.83;;
20283;SDS011;10301;50.832;4.080;2023-03-04T01:01:17;22.03;;;11.60;;
20283;SDS011;10301;50.832;4.080;2023-03-04T01:03:43;21.00;;;11.00;;
20283;SDS011;10301;50.832;4.080;2023-03-04T01:06:09;23.77;;;11.73;;
20283;SDS011;10301;50.832;4.080;2023-03-04T01:08:35;25.50;;;10.93;;
20283;SDS011;10301;50.832;4.080;2023-03-04T01:11:01;26.60;;;12.30;;
20283;SDS011;10301;50.832;4.080;2023-03-04T01:13:27;22.57;;;11.43;;
20283;SDS011;10301;50.832;4.080;2023-03-04T01:15:53;25.50;;;11.80;;
20283;SDS011;10301;50.832;4.080;2023-03-04T01:18:18;23.17;;;10.73;;
20283;SDS011;10301;50.832;4.080;2023-03-04T01:20:44;22.90;;;11.33;;
20283;SDS011;10301;50.832;4.080;2023-03-04T01:23:09;22.80;;;11.17;;
20283;SDS011;10301;50.832;4.080;2023-03-04T01:25:35;21.70;;;9.87;;
20283;SDS011;10301;50.832;4.080;2023-03-04T01:28:01;16.73;;;10.23;;
20283;SDS011;10301;50.832;4.080;2023-03-04T01:30:26;23.13;;;11.03;;
20283;SDS011;10301;50.832;4.080;2023-03-04T01:32:52;22.70;;;10.80;;
20283;SDS011;10301;50.832;4.080;2023-03-04T01:35:18;21.13;;;10.60;;
20283;SDS011;10301;50.832;4.080;2023-03-04T01:37:43;19.97;;;10.47;;
20283;SDS011;10301;50.832;4.080;2023-03-04T01:40:09;21.10;;;8.77;;
20283;SDS011;10301;50.832;4.080;2023-03-04T01:42:35;19.47;;;9.63;;
20283;SDS011;10301;50.832;4.080;2023-03-04T01:45:01;17.77;;;9.27;;
20283;SDS011;10301;50.832;4.080;2023-03-04T01:47:29;22.53;;;9.10;;
20283;SDS011;10301;50.832;4.080;2023-03-04T01:49:56;17.77;;;9.67;;
20283;SDS011;10301;50.832;4.080;2023-03-04T01:52:25;14.83;;;8.33;;
20283;SDS011;10301;50.832;4.080;2023-03-04T01:54:51;22.53;;;8.90;;
20283;SDS011;10301;50.832;4.080;2023-03-04T01:57:22;20.53;;;8.63;;
20283;SDS011;10301;50.832;4.080;2023-03-04T02:02:39;16.10;;;7.60;;
20283;SDS011;10301;50.832;4.080;2023-03-04T02:05:05;19.00;;;8.70;;
20283;SDS011;10301;50.832;4.080;2023-03-04T02:07:31;24.27;;;9.43;;
20283;SDS011;10301;50.832;4.080;2023-03-04T02:09:57;30.97;;;9.53;;
20283;SDS011;10301;50.832;4.080;2023-03-04T02:12:22;23.87;;;8.57;;
20283;SDS011;10301;50.832;4.080;2023-03-04T02:14:48;19.30;;;10.33;;
20283;SDS011;10301;50.832;4.080;2023-03-04T02:17:14;29.53;;;12.40;;
20283;SDS011;10301;50.832;4.080;2023-03-04T02:22:11;20.63;;;8.47;;
20283;SDS011;10301;50.832;4.080;2023-03-04T02:24:38;20.60;;;8.03;;
20283;SDS011;10301;50.832;4.080;2023-03-04T02:27:08;22.80;;;8.23;;
20283;SDS011;10301;50.832;4.080;2023-03-04T02:29:33;20.43;;;8.23;;
20283;SDS011;10301;50.832;4.080;2023-03-04T02:31:59;19.73;;;8.00;;
20283;SDS011;10301;50.832;4.080;2023-03-04T02:34:34;19.20;;;7.87;;
20283;SDS011;10301;50.832;4.080;2023-03-04T02:37:01;18.13;;;7.93;;
20283;SDS011;10301;50.832;4.080;2023-03-04T02:39:30;25.27;;;9.50;;
20283;SDS011;10301;50.832;4.080;2023-03-04T02:42:00;18.10;;;7.80;;
20283;SDS011;10301;50.832;4.080;2023-03-04T02:44:31;19.60;;;8.47;;
20283;SDS011;10301;50.832;4.080;2023-03-04T02:47:01;21.00;;;8.27;;
20283;SDS011;10301;50.832;4.080;2023-03-04T02:49:28;22.83;;;8.13;;
20283;SDS011;10301;50.832;4.080;2023-03-04T02:52:00;18.43;;;8.53;;
20283;SDS011;10301;50.832;4.080;2023-03-04T02:54:29;19.47;;;8.27;;
20283;SDS011;10301;50.832;4.080;2023-03-04T02:56:56;20.07;;;8.10;;
20283;SDS011;10301;50.832;4.080;2023-03-04T02:59:30;17.30;;;8.63;;
20283;SDS011;10301;50.832;4.080;2023-03-04T03:01:55;20.07;;;8.23;;
20283;SDS011;10301;50.832;4.080;2023-03-04T03:04:21;19.70;;;8.03;;
20283;SDS011;10301;50.832;4.080;2023-03-04T03:06:48;18.33;;;9.23;;
20283;SDS011;10301;50.832;4.080;2023-03-04T03:09:14;22.30;;;9.50;;
20283;SDS011;10301;50.832;4.080;2023-03-04T03:11:39;24.60;;;9.20;;
20283;SDS011;10301;50.832;4.080;2023-03-04T03:14:05;22.63;;;7.73;;
20283;SDS011;10301;50.832;4.080;2023-03-04T03:16:31;20.43;;;9.40;;
20283;SDS011;10301;50.832;4.080;2023-03-04T03:18:57;23.57;;;8.40;;
20283;SDS011;10301;50.832;4.080;2023-03-04T03:21:22;26.03;;;9.87;;
20283;SDS011;10301;50.832;4.080;2023-03-04T03:23:48;21.03;;;9.07;;
20283;SDS011;10301;50.832;4.080;2023-03-04T03:26:14;17.03;;;8.37;;
20283;SDS011;10301;50.832;4.080;2023-03-04T03:28:40;22.77;;;8.27;;
20283;SDS011;10301;50.832;4.080;2023-03-04T03:31:06;21.43;;;7.73;;
20283;SDS011;10301;50.832;4.080;2023-03-04T03:33:32;21.43;;;7.53;;
20283;SDS011;10301;50.832;4.080;2023-03-04T03:35:57;24.63;;;9.93;;
20283;SDS011;10301;50.832;4.080;2023-03-04T03:38:24;24.77;;;8.23;;
20283;SDS011;10301;50.832;4.080;2023-03-04T03:40:50;19.50;;;7.43;;
20283;SDS011;10301;50.832;4.080;2023-03-04T03:43:16;18.37;;;8.00;;
20283;SDS011;10301;50.832;4.080;2023-03-04T03:45:41;16.67;;;7.97;;
20283;SDS011;10301;50.832;4.080;2023-03-04T03:48:07;20.53;;;7.87;;
20283;SDS011;10301;50.832;4.080;2023-03-04T03:50:33;24.37;;;8.20;;
20283;SDS011;10301;50.832;4.080;2023-03-04T03:52:58;16.43;;;8.33;;
20283;SDS011;10301;50.832;4.080;2023-03-04T03:55:24;19.70;;;7.80;;
20283;SDS011;10301;50.832;4.080;2023-03-04T03:57:50;19.97;;;7.50;;
20283;SDS011;10301;50.832;4.080;2023-03-04T04:00:16;24.20;;;9.23;;
20283;SDS011;10301;50.832;4.080;2023-03-04T04:02:42;19.33;;;8.83;;
20283;SDS011;10301;50.832;4.080;2023-03-04T04:05:08;18.60;;;8.20;;
20283;SDS011;10301;50.832;4.080;2023-03-04T04:07:34;17.13;;;7.90;;
20283;SDS011;10301;50.832;4.080;2023-03-04T04:10:01;15.47;;;8.47;;
20283;SDS011;10301;50.832;4.080;2023-03-04T04:12:27;20.47;;;7.47;;
20283;SDS011;10301;50.832;4.080;2023-03-04T04:14:53;16.97;;;7.33;;
20283;SDS011;10301;50.832;4.080;2023-03-04T04:17:18;21.03;;;8.23;;
20283;SDS011;10301;50.832;4.080;2023-03-04T04:19:44;20.30;;;8.40;;
20283;SDS011;10301;50.832;4.080;2023-03-04T04:22:12;20.87;;;8.87;;
20283;SDS011;10301;50.832;4.080;2023-03-04T04:24:40;20.10;;;8.27;;
20283;SDS011;10301;50.832;4.080;2023-03-04T04:27:06;19.23;;;8.47;;
20283;SDS011;10301;50.832;4.080;2023-03-04T04:29:31;16.70;;;7.93;;
20283;SDS011;10301;50.832;4.080;2023-03-04T04:32:00;19.27;;;7.97;;
20283;SDS011;10301;50.832;4.080;2023-03-04T04:34:26;27.33;;;9.20;;
20283;SDS011;10301;50.832;4.080;2023-03-04T04:36:52;22.07;;;7.50;;
20283;SDS011;10301;50.832;4.080;2023-03-04T04:39:17;17.80;;;7.80;;
20283;SDS011;10301;50.832;4.080;2023-03-04T04:41:44;22.33;;;8.07;;
20283;SDS011;10301;50.832;4.080;2023-03-04T04:44:10;29.00;;;8.17;;
20283;SDS011;10301;50.832;4.080;2023-03-04T04:46:37;16.57;;;7.77;;
20283;SDS011;10301;50.832;4.080;2023-03-04T04:49:04;19.40;;;8.23;;
20283;SDS011;10301;50.832;4.080;2023-03-04T04:51:30;18.27;;;6.90;;
20283;SDS011;10301;50.832;4.080;2023-03-04T04:53:58;23.33;;;8.03;;
20283;SDS011;10301;50.832;4.080;2023-03-04T04:56:26;17.73;;;6.70;;
20283;SDS011;10301;50.832;4.080;2023-03-04T04:58:55;17.83;;;6.97;;
20283;SDS011;10301;50.832;4.080;2023-03-04T05:01:23;16.07;;;6.80;;
20283;SDS011;10301;50.832;4.080;2023-03-04T05:03:49;22.37;;;7.87;;
20283;SDS011;10301;50.832;4.080;2023-03-04T05:06:17;30.23;;;11.87;;
20283;SDS011;10301;50.832;4.080;2023-03-04T05:08:44;26.70;;;8.77;;
20283;SDS011;10301;50.832;4.080;2023-03-04T05:11:09;19.53;;;7.63;;
20283;SDS011;10301;50.832;4.080;2023-03-04T05:13:35;18.87;;;7.70;;
20283;SDS011;10301;50.832;4.080;2023-03-04T05:16:00;20.40;;;7.63;;
20283;SDS011;10301;50.832;4.080;2023-03-04T05:18:27;20.27;;;6.63;;
20283;SDS011;10301;50.832;4.080;2023-03-04T05:20:56;19.13;;;6.67;;
20283;SDS011;10301;50.832;4.080;2023-03-04T05:23:24;17.53;;;6.63;;
20283;SDS011;10301;50.832;4.080;2023-03-04T05:25:50;19.03;;;6.60;;
20283;SDS011;10301;50.832;4.080;2023-03-04T05:28:16;14.90;;;6.40;;
20283;SDS011;10301;50.832;4.080;2023-03-04T05:30:43;19.93;;;6.10;;
20283;SDS011;10301;50.832;4.080;2023-03-04T05:33:10;19.20;;;5.00;;
20283;SDS011;10301;50.832;4.080;2023-03-04T05:35:38;14.60;;;5.10;;
20283;SDS011;10301;50.832;4.080;2023-03-04T05:38:06;15.13;;;5.87;;
20283;SDS011;10301;50.832;4.080;2023-03-04T05:40:33;12.53;;;4.93;;
20283;SDS011;10301;50.832;4.080;2023-03-04T05:42:59;16.10;;;5.03;;
20283;SDS011;10301;50.832;4.080;2023-03-04T05:45:25;13.77;;;4.80;;
20283;SDS011;10301;50.832;4.080;2023-03-04T05:47:52;16.97;;;4.67;;
20283;SDS011;10301;50.832;4.080;2023-03-04T05:50:19;14.13;;;4.70;;
20283;SDS011;10301;50.832;4.080;2023-03-04T05:52:45;16.07;;;4.80;;
20283;SDS011;10301;50.832;4.080;2023-03-04T05:55:11;14.33;;;5.27;;
20283;SDS011;10301;50.832;4.080;2023-03-04T05:57:37;15.53;;;4.60;;
20283;SDS011;10301;50.832;4.080;2023-03-04T06:00:03;13.40;;;4.27;;
20283;SDS011;10301;50.832;4.080;2023-03-04T06:02:33;12.33;;;4.27;;
20283;SDS011;10301;50.832;4.080;2023-03-04T06:04:59;12.30;;;4.30;;
20283;SDS011;10301;50.832;4.080;2023-03-04T06:07:25;13.70;;;3.73;;
20283;SDS011;10301;50.832;4.080;2023-03-04T06:09:50;18.10;;;4.87;;
20283;SDS011;10301;50.832;4.080;2023-03-04T06:12:16;11.90;;;4.00;;
20283;SDS011;10301;50.832;4.080;2023-03-04T06:14:41;14.43;;;4.17;;
20283;SDS011;10301;50.832;4.080;2023-03-04T06:17:07;17.87;;;4.23;;
20283;SDS011;10301;50.832;4.080;2023-03-04T06:19:33;13.17;;;3.90;;
20283;SDS011;10301;50.832;4.080;2023-03-04T06:21:58;15.17;;;4.63;;
20283;SDS011;10301;50.832;4.080;2023-03-04T06:24:24;17.50;;;4.93;;
20283;SDS011;10301;50.832;4.080;2023-03-04T06:26:52;13.67;;;4.83;;
20283;SDS011;10301;50.832;4.080;2023-03-04T06:29:18;15.40;;;4.73;;
20283;SDS011;10301;50.832;4.080;2023-03-04T06:31:44;11.70;;;4.87;;
20283;SDS011;10301;50.832;4.080;2023-03-04T06:34:09;14.73;;;5.10;;
20283;SDS011;10301;50.832;4.080;2023-03-04T06:36:35;13.40;;;5.27;;
20283;SDS011;10301;50.832;4.080;2023-03-04T06:39:02;16.47;;;4.80;;
20283;SDS011;10301;50.832;4.080;2023-03-04T06:41:28;11.77;;;4.30;;
20283;SDS011;10301;50.832;4.080;2023-03-04T06:43:54;13.33;;;5.03;;
20283;SDS011;10301;50.832;4.080;2023-03-04T06:46:20;13.10;;;4.70;;
20283;SDS011;10301;50.832;4.080;2023-03-04T06:48:45;15.13;;;4.30;;
20283;SDS011;10301;50.832;4.080;2023-03-04T06:51:11;11.10;;;4.17;;
20283;SDS011;10301;50.832;4.080;2023-03-04T06:53:37;12.90;;;4.30;;
20283;SDS011;10301;50.832;4.080;2023-03-04T06:56:04;16.50;;;3.97;;
20283;SDS011;10301;50.832;4.080;2023-03-04T06:58:30;14.50;;;4.00;;
20283;SDS011;10301;50.832;4.080;2023-03-04T07:00:56;18.23;;;4.10;;
20283;SDS011;10301;50.832;4.080;2023-03-04T07:03:21;13.13;;;5.13;;
20283;SDS011;10301;50.832;4.080;2023-03-04T07:05:47;12.00;;;4.30;;
20283;SDS011;10301;50.832;4.080;2023-03-04T07:08:13;13.77;;;4.60;;
20283;SDS011;10301;50.832;4.080;2023-03-04T07:10:39;14.37;;;4.20;;
20283;SDS011;10301;50.832;4.080;2023-03-04T07:13:05;13.87;;;4.70;;
20283;SDS011;10301;50.832;4.080;2023-03-04T07:15:31;14.87;;;4.30;;
20283;SDS011;10301;50.832;4.080;2023-03-04T07:17:56;18.70;;;4.10;;
20283;SDS011;10301;50.832;4.080;2023-03-04T07:20:22;14.43;;;4.40;;
20283;SDS011;10301;50.832;4.080;2023-03-04T07:22:48;16.33;;;4.53;;
20283;SDS011;10301;50.832;4.080;2023-03-04T07:25:13;15.37;;;5.03;;
20283;SDS011;10301;50.832;4.080;2023-03-04T07:27:39;15.73;;;4.60;;
20283;SDS011;10301;50.832;4.080;2023-03-04T07:30:05;16.70;;;4.20;;
20283;SDS011;10301;50.832;4.080;2023-03-04T07:32:32;18.77;;;4.37;;
20283;SDS011;10301;50.832;4.080;2023-03-04T07:35:01;14.60;;;3.77;;
20283;SDS011;10301;50.832;4.080;2023-03-04T07:37:27;13.90;;;3.70;;
20283;SDS011;10301;50.832;4.080;2023-03-04T07:39:53;12.47;;;3.10;;
20283;SDS011;10301;50.832;4.080;2023-03-04T07:42:19;13.67;;;3.10;;
20283;SDS011;10301;50.832;4.080;2023-03-04T07:44:44;12.37;;;2.97;;
20283;SDS011;10301;50.832;4.080;2023-03-04T07:47:10;13.97;;;3.70;;
20283;SDS011;10301;50.832;4.080;2023-03-04T07:49:36;13.50;;;3.90;;
20283;SDS011;10301;50.832;4.080;2023-03-04T07:52:02;14.57;;;3.83;;
20283;SDS011;10301;50.832;4.080;2023-03-04T07:54:29;10.37;;;3.63;;
20283;SDS011;10301;50.832;4.080;2023-03-04T07:56:55;10.67;;;3.60;;
20283;SDS011;10301;50.832;4.080;2023-03-04T07:59:20;15.57;;;4.03;;
20283;SDS011;10301;50.832;4.080;2023-03-04T08:01:46;15.13;;;4.13;;
20283;SDS011;10301;50.832;4.080;2023-03-04T08:04:12;16.70;;;3.33;;
20283;SDS011;10301;50.832;4.080;2023-03-04T08:06:39;11.10;;;3.13;;
20283;SDS011;10301;50.832;4.080;2023-03-04T08:09:06;12.53;;;4.03;;
20283;SDS011;10301;50.832;4.080;2023-03-04T08:11:34;12.47;;;3.67;;
20283;SDS011;10301;50.832;4.080;2023-03-04T08:14:01;11.00;;;4.30;;
20283;SDS011;10301;50.832;4.080;2023-03-04T08:16:27;17.80;;;4.63;;
20283;SDS011;10301;50.832;4.080;2023-03-04T08:18:54;15.73;;;4.10;;
20283;SDS011;10301;50.832;4.080;2023-03-04T08:21:22;11.47;;;4.53;;
20283;SDS011;10301;50.832;4.080;2023-03-04T08:23:50;13.00;;;4.43;;
20283;SDS011;10301;50.832;4.080;2023-03-04T08:26:21;14.47;;;4.90;;
20283;SDS011;10301;50.832;4.080;2023-03-04T08:28:51;15.43;;;4.83;;
20283;SDS011;10301;50.832;4.080;2023-03-04T08:31:18;19.17;;;4.70;;
20283;SDS011;10301;50.832;4.080;2023-03-04T08:33:45;13.73;;;4.87;;
20283;SDS011;10301;50.832;4.080;2023-03-04T08:36:11;15.80;;;4.50;;
20283;SDS011;10301;50.832;4.080;2023-03-04T08:38:37;12.33;;;4.93;;
20283;SDS011;10301;50.832;4.080;2023-03-04T08:41:03;14.27;;;4.80;;
20283;SDS011;10301;50.832;4.080;2023-03-04T08:43:29;13.10;;;4.40;;
20283;SDS011;10301;50.832;4.080;2023-03-04T08:45:56;14.37;;;4.20;;
20283;SDS011;10301;50.832;4.080;2023-03-04T08:48:21;12.90;;;4.57;;
20283;SDS011;10301;50.832;4.080;2023-03-04T08:50:48;13.10;;;4.03;;
20283;SDS011;10301;50.832;4.080;2023-03-04T08:53:14;14.43;;;4.30;;
20283;SDS011;10301;50.832;4.080;2023-03-04T08:55:40;12.00;;;4.03;;
20283;SDS011;10301;50.832;4.080;2023-03-04T08:58:06;15.77;;;3.93;;
20283;SDS011;10301;50.832;4.080;2023-03-04T09:00:33;18.03;;;4.07;;
20283;SDS011;10301;50.832;4.080;2023-03-04T09:03:00;10.93;;;3.80;;
20283;SDS011;10301;50.832;4.080;2023-03-04T09:05:28;10.03;;;3.83;;
20283;SDS011;10301;50.832;4.080;2023-03-04T09:07:54;16.97;;;4.03;;
20283;SDS011;10301;50.832;4.080;2023-03-04T09:10:19;9.23;;;3.87;;
20283;SDS011;10301;50.832;4.080;2023-03-04T09:12:45;13.23;;;3.97;;
20283;SDS011;10301;50.832;4.080;2023-03-04T09:15:11;12.30;;;4.30;;
20283;SDS011;10301;50.832;4.080;2023-03-04T09:17:37;11.47;;;4.27;;
20283;SDS011;10301;50.832;4.080;2023-03-04T09:20:03;10.17;;;3.80;;
20283;SDS011;10301;50.832;4.080;2023-03-04T09:22:32;11.57;;;4.50;;
20283;SDS011;10301;50.832;4.080;2023-03-04T09:24:57;11.00;;;4.17;;
20283;SDS011;10301;50.832;4.080;2023-03-04T09:27:23;14.20;;;3.80;;
20283;SDS011;10301;50.832;4.080;2023-03-04T09:29:49;12.90;;;4.07;;
20283;SDS011;10301;50.832;4.080;2023-03-04T09:32:14;10.73;;;3.30;;
20283;SDS011;10301;50.832;4.080;2023-03-04T09:34:40;12.00;;;3.80;;
20283;SDS011;10301;50.832;4.080;2023-03-04T09:37:06;16.17;;;3.70;;
20283;SDS011;10301;50.832;4.080;2023-03-04T09:39:31;12.03;;;3.70;;
20283;SDS011;10301;50.832;4.080;2023-03-04T09:41:57;10.77;;;3.40;;
20283;SDS011;10301;50.832;4.080;2023-03-04T09:44:28;14.20;;;3.50;;
20283;SDS011;10301;50.832;4.080;2023-03-04T09:46:59;13.83;;;3.50;;
20283;SDS011;10301;50.832;4.080;2023-03-04T09:49:27;16.43;;;3.43;;
20283;SDS011;10301;50.832;4.080;2023-03-04T10:00:03;15.23;;;3.83;;
20283;SDS011;10301;50.832;4.080;2023-03-04T10:05:23;13.00;;;3.40;;
20283;SDS011;10301;50.832;4.080;2023-03-04T10:07:58;8.27;;;2.90;;
20283;SDS011;10301;50.832;4.080;2023-03-04T10:10:35;9.50;;;4.53;;
20283;SDS011;10301;50.832;4.080;2023-03-04T10:13:03;11.80;;;3.70;;
20283;SDS011;10301;50.832;4.080;2023-03-04T10:18:19;14.13;;;3.87;;
20283;SDS011;10301;50.832;4.080;2023-03-04T10:21:16;15.40;;;4.03;;
20283;SDS011;10301;50.832;4.080;2023-03-04T10:23:47;15.90;;;3.90;;
20283;SDS011;10301;50.832;4.080;2023-03-04T10:26:15;13.87;;;4.17;;
20283;SDS011;10301;50.832;4.080;2023-03-04T10:28:44;11.03;;;3.90;;
20283;SDS011;10301;50.832;4.080;2023-03-04T10:31:13;11.27;;;3.90;;
20283;SDS011;10301;50.832;4.080;2023-03-04T10:33:41;11.33;;;4.63;;
20283;SDS011;10301;50.832;4.080;2023-03-04T10:36:31;11.17;;;5.00;;
20283;SDS011;10301;50.832;4.080;2023-03-04T10:39:12;11.90;;;4.10;;
20283;SDS011;10301;50.832;4.080;2023-03-04T10:41:44;14.50;;;4.67;;
20283;SDS011;10301;50.832;4.080;2023-03-04T10:44:17;14.53;;;3.87;;
20283;SDS011;10301;50.832;4.080;2023-03-04T10:46:44;13.90;;;4.60;;
20283;SDS011;10301;50.832;4.080;2023-03-04T10:49:12;12.57;;;4.73;;
20283;SDS011;10301;50.832;4.080;2023-03-04T10:54:15;12.73;;;4.63;;
20283;SDS011;10301;50.832;4.080;2023-03-04T10:57:04;13.47;;;4.37;;
20283;SDS011;10301;50.832;4.080;2023-03-04T10:59:57;12.50;;;3.87;;
20283;SDS011;10301;50.832;4.080;2023-03-04T11:02:43;13.83;;;4.43;;
20283;SDS011;10301;50.832;4.080;2023-03-04T11:05:15;11.20;;;4.73;;
20283;SDS011;10301;50.832;4.080;2023-03-04T11:10:24;13.93;;;4.60;;
20283;SDS011;10301;50.832;4.080;2023-03-04T11:15:21;10.83;;;3.20;;
20283;SDS011;10301;50.832;4.080;2023-03-04T11:18:05;9.77;;;3.10;;
20283;SDS011;10301;50.832;4.080;2023-03-04T11:20:35;11.93;;;3.30;;
20283;SDS011;10301;50.832;4.080;2023-03-04T11:23:10;8.63;;;3.03;;
20283;SDS011;10301;50.832;4.080;2023-03-04T11:25:49;10.30;;;3.87;;
20283;SDS011;10301;50.832;4.080;2023-03-04T11:28:25;9.27;;;4.00;;
20283;SDS011;10301;50.832;4.080;2023-03-04T11:31:05;10.87;;;3.77;;
20283;SDS011;10301;50.832;4.080;2023-03-04T11:33:46;9.03;;;4.00;;
20283;SDS011;10301;50.832;4.080;2023-03-04T11:36:32;11.73;;;3.40;;
20283;SDS011;10301;50.832;4.080;2023-03-04T11:39:04;9.30;;;3.57;;
20283;SDS011;10301;50.832;4.080;2023-03-04T11:41:57;11.30;;;3.40;;
20283;SDS011;10301;50.832;4.080;2023-03-04T11:44:54;11.13;;;3.50;;
20283;SDS011;10301;50.832;4.080;2023-03-04T11:47:36;15.97;;;3.60;;
20283;SDS011;10301;50.832;4.080;2023-03-04T11:53:02;11.53;;;3.17;;
20283;SDS011;10301;50.832;4.080;2023-03-04T11:59:08;11.43;;;3.00;;
20283;SDS011;10301;50.832;4.080;2023-03-04T12:04:38;9.03;;;2.50;;
20283;SDS011;10301;50.832;4.080;2023-03-04T12:12:52;9.83;;;2.80;;
20283;SDS011;10301;50.832;4.080;2023-03-04T12:28:59;7.70;;;2.40;;
20283;SDS011;10301;50.832;4.080;2023-03-04T12:31:37;9.37;;;2.50;;
20283;SDS011;10301;50.832;4.080;2023-03-04T12:39:35;6.60;;;2.43;;
20283;SDS011;10301;50.832;4.080;2023-03-04T12:45:34;3.57;;;1.97;;
20283;SDS011;10301;50.832;4.080;2023-03-04T12:47:45;7.27;;;2.30;;
20283;SDS011;10301;50.832;4.080;2023-03-04T12:55:41;7.57;;;2.10;;
20283;SDS011;10301;50.832;4.080;2023-03-04T12:58:12;8.07;;;2.10;;
20283;SDS011;10301;50.832;4.080;2023-03-04T13:06:42;4.43;;;1.60;;
20283;SDS011;10301;50.832;4.080;2023-03-04T13:09:33;6.50;;;1.53;;
20283;SDS011;10301;50.832;4.080;2023-03-04T13:12:21;4.60;;;1.30;;
20283;SDS011;10301;50.832;4.080;2023-03-04T13:17:42;8.47;;;2.10;;
20283;SDS011;10301;50.832;4.080;2023-03-04T13:22:57;4.60;;;1.67;;
20283;SDS011;10301;50.832;4.080;2023-03-04T13:38:23;5.77;;;3.00;;
20283;SDS011;10301;50.832;4.080;2023-03-04T13:43:43;7.67;;;1.97;;
20283;SDS011;10301;50.832;4.080;2023-03-04T14:01:46;9.33;;;3.07;;
20283;SDS011;10301;50.832;4.080;2023-03-04T14:04:31;5.37;;;1.47;;
20283;SDS011;10301;50.832;4.080;2023-03-04T14:07:02;6.13;;;1.20;;
20283;SDS011;10301;50.832;4.080;2023-03-04T14:12:44;4.10;;;1.20;;
20283;SDS011;10301;50.832;4.080;2023-03-04T14:17:39;5.67;;;2.23;;
20283;SDS011;10301;50.832;4.080;2023-03-04T14:23:22;7.70;;;1.40;;
20283;SDS011;10301;50.832;4.080;2023-03-04T14:25:50;4.07;;;1.90;;
20283;SDS011;10301;50.832;4.080;2023-03-04T14:28:17;3.23;;;1.30;;
20283;SDS011;10301;50.832;4.080;2023-03-04T14:30:51;5.23;;;1.00;;
20283;SDS011;10301;50.832;4.080;2023-03-04T14:33:26;4.47;;;1.17;;
20283;SDS011;10301;50.832;4.080;2023-03-04T14:35:54;3.67;;;1.20;;
20283;SDS011;10301;50.832;4.080;2023-03-04T14:38:24;4.43;;;1.40;;
20283;SDS011;10301;50.832;4.080;2023-03-04T14:43:40;2.73;;;1.27;;
20283;SDS011;10301;50.832;4.080;2023-03-04T14:46:17;3.37;;;1.13;;
20283;SDS011;10301;50.832;4.080;2023-03-04T14:48:49;2.57;;;1.10;;
20283;SDS011;10301;50.832;4.080;2023-03-04T14:51:30;5.70;;;1.23;;
20283;SDS011;10301;50.832;4.080;2023-03-04T14:54:01;3.93;;;1.10;;
20283;SDS011;10301;50.832;4.080;2023-03-04T14:56:35;7.13;;;1.83;;
20283;SDS011;10301;50.832;4.080;2023-03-04T14:59:10;4.07;;;1.17;;
20283;SDS011;10301;50.832;4.080;2023-03-04T15:01:37;5.67;;;1.80;;
20283;SDS011;10301;50.832;4.080;2023-03-04T15:04:09;5.23;;;2.07;;
20283;SDS011;10301;50.832;4.080;2023-03-04T15:06:37;5.23;;;1.53;;
20283;SDS011;10301;50.832;4.080;2023-03-04T15:11:46;5.40;;;2.23;;
20283;SDS011;10301;50.832;4.080;2023-03-04T15:17:18;8.00;;;3.63;;
20283;SDS011;10301;50.832;4.080;2023-03-04T15:22:27;8.50;;;3.83;;
20283;SDS011;10301;50.832;4.080;2023-03-04T15:24:53;9.63;;;4.33;;
20283;SDS011;10301;50.832;4.080;2023-03-04T15:27:19;7.60;;;4.07;;
20283;SDS011;10301;50.832;4.080;2023-03-04T15:29:53;8.40;;;2.90;;
20283;SDS011;10301;50.832;4.080;2023-03-04T15:32:23;8.17;;;3.17;;
20283;SDS011;10301;50.832;4.080;2023-03-04T15:34:49;8.43;;;3.30;;
20283;SDS011;10301;50.832;4.080;2023-03-04T15:37:23;8.80;;;3.23;;
20283;SDS011;10301;50.832;4.080;2023-03-04T15:39:51;8.17;;;4.37;;
20283;SDS011;10301;50.832;4.080;2023-03-04T15:42:20;12.00;;;4.27;;
20283;SDS011;10301;50.832;4.080;2023-03-04T15:44:46;7.73;;;4.20;;
20283;SDS011;10301;50.832;4.080;2023-03-04T15:47:11;7.87;;;4.20;;
20283;SDS011;10301;50.832;4.080;2023-03-04T15:49:41;15.90;;;4.30;;
20283;SDS011;10301;50.832;4.080;2023-03-04T15:52:14;10.90;;;3.07;;
20283;SDS011;10301;50.832;4.080;2023-03-04T15:54:45;10.63;;;3.40;;
20283;SDS011;10301;50.832;4.080;2023-03-04T15:57:25;9.27;;;3.27;;
20283;SDS011;10301;50.832;4.080;2023-03-04T15:59:51;7.53;;;3.50;;
20283;SDS011;10301;50.832;4.080;2023-03-04T16:02:19;9.87;;;3.60;;
20283;SDS011;10301;50.832;4.080;2023-03-04T16:04:46;8.50;;;3.07;;
20283;SDS011;10301;50.832;4.080;2023-03-04T16:07:16;8.83;;;3.00;;
20283;SDS011;10301;50.832;4.080;2023-03-04T16:09:44;6.27;;;3.00;;
20283;SDS011;10301;50.832;4.080;2023-03-04T16:12:10;6.23;;;2.90;;
20283;SDS011;10301;50.832;4.080;2023-03-04T16:14:36;8.10;;;2.90;;
20283;SDS011;10301;50.832;4.080;2023-03-04T16:17:02;7.40;;;2.90;;
20283;SDS011;10301;50.832;4.080;2023-03-04T16:19:27;9.27;;;2.93;;
20283;SDS011;10301;50.832;4.080;2023-03-04T16:21:53;8.07;;;2.60;;
20283;SDS011;10301;50.832;4.080;2023-03-04T16:24:19;11.27;;;2.87;;
20283;SDS011;10301;50.832;4.080;2023-03-04T16:26:46;7.80;;;2.87;;
20283;SDS011;10301;50.832;4.080;2023-03-04T16:29:12;13.63;;;3.60;;
20283;SDS011;10301;50.832;4.080;2023-03-04T16:31:39;6.40;;;2.40;;
20283;SDS011;10301;50.832;4.080;2023-03-04T16:34:05;5.90;;;1.90;;
20283;SDS011;10301;50.832;4.080;2023-03-04T16:36:30;5.17;;;2.00;;
20283;SDS011;10301;50.832;4.080;2023-03-04T16:38:57;7.13;;;1.70;;
20283;SDS011;10301;50.832;4.080;2023-03-04T16:41:27;4.97;;;1.57;;
20283;SDS011;10301;50.832;4.080;2023-03-04T16:43:57;5.53;;;1.80;;
20283;SDS011;10301;50.832;4.080;2023-03-04T16:46:24;6.57;;;1.80;;
20283;SDS011;10301;50.832;4.080;2023-03-04T16:48:50;5.80;;;1.90;;
20283;SDS011;10301;50.832;4.080;2023-03-04T16:51:17;7.60;;;1.60;;
20283;SDS011;10301;50.832;4.080;2023-03-04T16:53:48;8.70;;;2.23;;